sensor_id;sensor_type;location;lat;lon;timestamp;temperature;humidity
29729;DHT22;20055;51.498;11.960;2023-12-04T00:01:22;-1.10;99.90
29729;DHT22;20055;51.498;11.960;2023-12-04T00:03:49;-1.10;99.90
29729;DHT22;20055;51.498;11.960;2023-12-04T00:06:15;-1.00;99.90
29729;DHT22;20055;51.498;11.960;2023-12-04T00:08:41;-1.00;99.90
29729;DHT22;20055;51.498;11.960;2023-12-04T00:11:08;-1.00;99.90
29729;DHT22;20055;51.498;11.960;2023-12-04T00:13:34;-1.00;99.90
29729;DHT22;20055;51.498;11.960;2023-12-04T00:16:01;-1.00;99.90
29729;DHT22;20055;51.498;11.960;2023-12-04T00:18:27;-1.10;99.90
29729;DHT22;20055;51.498;11.960;2023-12-04T00:20:54;-1.10;99.90
29729;DHT22;20055;51.498;11.960;2023-12-04T00:23:20;-1.00;99.90
29729;DHT22;20055;51.498;11.960;2023-12-04T00:25:46;-1.00;99.90
29729;DHT22;20055;51.498;11.960;2023-12-04T00:28:13;-0.90;99.90
29729;DHT22;20055;51.498;11.960;2023-12-04T00:30:40;-0.90;99.90
29729;DHT22;20055;51.498;11.960;2023-12-04T00:33:07;-1.00;99.90
29729;DHT22;20055;51.498;11.960;2023-12-04T00:35:33;-1.10;99.90
29729;DHT22;20055;51.498;11.960;2023-12-04T00:37:59;-1.00;99.90
29729;DHT22;20055;51.498;11.960;2023-12-04T00:40:26;-1.00;99.90
29729;DHT22;20055;51.498;11.960;2023-12-04T00:42:52;-0.90;99.90
29729;DHT22;20055;51.498;11.960;2023-12-04T00:45:19;-0.90;99.90
29729;DHT22;20055;51.498;11.960;2023-12-04T00:47:45;-0.90;99.90
29729;DHT22;20055;51.498;11.960;2023-12-04T00:50:11;-0.80;99.90
29729;DHT22;20055;51.498;11.960;2023-12-04T00:52:38;-0.80;99.90
29729;DHT22;20055;51.498;11.960;2023-12-04T00:55:05;-0.70;99.90
29729;DHT22;20055;51.498;11.960;2023-12-04T00:57:31;-0.70;99.90
29729;DHT22;20055;51.498;11.960;2023-12-04T00:59:58;-0.80;99.90
29729;DHT22;20055;51.498;11.960;2023-12-04T01:02:24;-0.70;99.90
29729;DHT22;20055;51.498;11.960;2023-12-04T01:04:51;-0.70;99.90
29729;DHT22;20055;51.498;11.960;2023-12-04T01:07:18;-0.70;99.90
29729;DHT22;20055;51.498;11.960;2023-12-04T01:09:44;-0.70;99.90
29729;DHT22;20055;51.498;11.960;2023-12-04T01:12:10;-0.70;99.90
29729;DHT22;20055;51.498;11.960;2023-12-04T01:14:37;-0.70;99.90
29729;DHT22;20055;51.498;11.960;2023-12-04T01:17:04;-0.80;99.90
29729;DHT22;20055;51.498;11.960;2023-12-04T01:19:32;-0.80;99.90
29729;DHT22;20055;51.498;11.960;2023-12-04T01:21:59;-0.80;99.90
29729;DHT22;20055;51.498;11.960;2023-12-04T01:24:26;-0.80;99.90
29729;DHT22;20055;51.498;11.960;2023-12-04T01:26:52;-0.80;99.90
29729;DHT22;20055;51.498;11.960;2023-12-04T01:29:18;-0.80;99.90
29729;DHT22;20055;51.498;11.960;2023-12-04T01:31:46;-0.80;99.90
29729;DHT22;20055;51.498;11.960;2023-12-04T01:34:13;-0.90;99.90
29729;DHT22;20055;51.498;11.960;2023-12-04T01:36:42;-0.80;99.90
29729;DHT22;20055;51.498;11.960;2023-12-04T01:39:08;-0.80;99.90
29729;DHT22;20055;51.498;11.960;2023-12-04T01:41:35;-0.70;99.90
29729;DHT22;20055;51.498;11.960;2023-12-04T01:44:01;-0.80;99.90
29729;DHT22;20055;51.498;11.960;2023-12-04T01:46:28;-0.80;99.90
29729;DHT22;20055;51.498;11.960;2023-12-04T01:48:55;-0.70;99.90
29729;DHT22;20055;51.498;11.960;2023-12-04T01:51:22;-0.60;99.90
29729;DHT22;20055;51.498;11.960;2023-12-04T01:53:49;-0.60;99.90
29729;DHT22;20055;51.498;11.960;2023-12-04T01:56:17;-0.60;99.90
29729;DHT22;20055;51.498;11.960;2023-12-04T01:58:43;-0.50;99.90
29729;DHT22;20055;51.498;11.960;2023-12-04T02:01:10;-0.50;99.90
29729;DHT22;20055;51.498;11.960;2023-12-04T02:03:37;-0.70;99.90
29729;DHT22;20055;51.498;11.960;2023-12-04T02:06:04;-1.00;99.90
29729;DHT22;20055;51.498;11.960;2023-12-04T02:08:31;-0.90;99.90
29729;DHT22;20055;51.498;11.960;2023-12-04T02:10:59;-0.80;99.90
29729;DHT22;20055;51.498;11.960;2023-12-04T02:13:25;-1.20;99.90
29729;DHT22;20055;51.498;11.960;2023-12-04T02:15:53;-1.60;99.90
29729;DHT22;20055;51.498;11.960;2023-12-04T02:18:21;-1.70;99.90
29729;DHT22;20055;51.498;11.960;2023-12-04T02:20:48;-1.80;99.90
29729;DHT22;20055;51.498;11.960;2023-12-04T02:23:14;-1.90;99.90
29729;DHT22;20055;51.498;11.960;2023-12-04T02:25:41;-2.00;99.90
29729;DHT22;20055;51.498;11.960;2023-12-04T02:28:11;-2.00;99.90
29729;DHT22;20055;51.498;11.960;2023-12-04T02:30:41;-1.90;99.90
29729;DHT22;20055;51.498;11.960;2023-12-04T02:33:11;-1.90;99.90
29729;DHT22;20055;51.498;11.960;2023-12-04T02:35:39;-1.90;99.90
29729;DHT22;20055;51.498;11.960;2023-12-04T02:38:06;-1.90;99.90
29729;DHT22;20055;51.498;11.960;2023-12-04T02:40:33;-2.00;99.90
29729;DHT22;20055;51.498;11.960;2023-12-04T02:43:00;-1.90;99.90
29729;DHT22;20055;51.498;11.960;2023-12-04T02:45:27;-1.70;99.90
29729;DHT22;20055;51.498;11.960;2023-12-04T02:47:53;-1.70;99.90
29729;DHT22;20055;51.498;11.960;2023-12-04T02:50:19;-1.70;99.90
29729;DHT22;20055;51.498;11.960;2023-12-04T02:52:46;-1.70;99.90
29729;DHT22;20055;51.498;11.960;2023-12-04T02:55:12;-1.70;99.90
29729;DHT22;20055;51.498;11.960;2023-12-04T02:57:38;-1.60;99.90
29729;DHT22;20055;51.498;11.960;2023-12-04T03:00:05;-1.70;99.90
29729;DHT22;20055;51.498;11.960;2023-12-04T03:02:32;-1.60;99.90
29729;DHT22;20055;51.498;11.960;2023-12-04T03:04:58;-1.60;99.90
29729;DHT22;20055;51.498;11.960;2023-12-04T03:07:25;-1.40;99.90
29729;DHT22;20055;51.498;11.960;2023-12-04T03:09:52;-1.30;99.90
29729;DHT22;20055;51.498;11.960;2023-12-04T03:12:19;-1.30;99.90
29729;DHT22;20055;51.498;11.960;2023-12-04T03:14:45;-1.20;99.90
29729;DHT22;20055;51.498;11.960;2023-12-04T03:17:11;-1.00;99.90
29729;DHT22;20055;51.498;11.960;2023-12-04T03:19:38;-0.90;99.90
29729;DHT22;20055;51.498;11.960;2023-12-04T03:22:04;-0.70;99.90
29729;DHT22;20055;51.498;11.960;2023-12-04T03:24:30;-0.80;99.90
29729;DHT22;20055;51.498;11.960;2023-12-04T03:26:57;-0.70;99.90
29729;DHT22;20055;51.498;11.960;2023-12-04T03:29:23;-0.70;99.90
29729;DHT22;20055;51.498;11.960;2023-12-04T03:31:49;-0.60;99.90
29729;DHT22;20055;51.498;11.960;2023-12-04T03:34:16;-0.50;99.90
29729;DHT22;20055;51.498;11.960;2023-12-04T03:36:42;-0.50;99.90
29729;DHT22;20055;51.498;11.960;2023-12-04T03:39:08;-0.50;99.90
29729;DHT22;20055;51.498;11.960;2023-12-04T03:41:35;-0.50;99.90
29729;DHT22;20055;51.498;11.960;2023-12-04T03:44:01;-0.40;99.90
29729;DHT22;20055;51.498;11.960;2023-12-04T03:46:28;-0.50;99.90
29729;DHT22;20055;51.498;11.960;2023-12-04T03:48:55;-0.50;99.90
29729;DHT22;20055;51.498;11.960;2023-12-04T03:51:21;-0.40;99.90
29729;DHT22;20055;51.498;11.960;2023-12-04T03:53:47;-0.40;99.90
29729;DHT22;20055;51.498;11.960;2023-12-04T03:56:14;-0.50;99.90
29729;DHT22;20055;51.498;11.960;2023-12-04T03:58:40;-0.60;99.90
29729;DHT22;20055;51.498;11.960;2023-12-04T04:01:07;-0.50;99.90
29729;DHT22;20055;51.498;11.960;2023-12-04T04:03:33;-0.40;99.90
29729;DHT22;20055;51.498;11.960;2023-12-04T04:06:00;-0.40;99.90
29729;DHT22;20055;51.498;11.960;2023-12-04T04:08:26;-0.30;99.90
29729;DHT22;20055;51.498;11.960;2023-12-04T04:10:52;-0.20;99.90
29729;DHT22;20055;51.498;11.960;2023-12-04T04:13:19;-0.20;99.90
29729;DHT22;20055;51.498;11.960;2023-12-04T04:15:45;-0.20;99.90
29729;DHT22;20055;51.498;11.960;2023-12-04T04:18:12;-0.40;99.90
29729;DHT22;20055;51.498;11.960;2023-12-04T04:20:38;-0.40;99.90
29729;DHT22;20055;51.498;11.960;2023-12-04T04:23:05;-0.30;99.90
29729;DHT22;20055;51.498;11.960;2023-12-04T04:25:31;-0.40;99.90
29729;DHT22;20055;51.498;11.960;2023-12-04T04:27:57;-0.50;99.90
29729;DHT22;20055;51.498;11.960;2023-12-04T04:30:23;-0.50;99.90
29729;DHT22;20055;51.498;11.960;2023-12-04T04:32:50;-0.40;99.90
29729;DHT22;20055;51.498;11.960;2023-12-04T04:35:16;-0.30;99.90
29729;DHT22;20055;51.498;11.960;2023-12-04T04:37:42;-0.30;99.90
29729;DHT22;20055;51.498;11.960;2023-12-04T04:40:09;-0.20;99.90
29729;DHT22;20055;51.498;11.960;2023-12-04T04:42:35;-0.20;99.90
29729;DHT22;20055;51.498;11.960;2023-12-04T04:45:02;-0.30;99.90
29729;DHT22;20055;51.498;11.960;2023-12-04T04:47:28;-0.70;99.90
29729;DHT22;20055;51.498;11.960;2023-12-04T04:49:55;-0.80;99.90
29729;DHT22;20055;51.498;11.960;2023-12-04T04:52:21;-0.70;99.90
29729;DHT22;20055;51.498;11.960;2023-12-04T04:54:47;-0.50;99.90
29729;DHT22;20055;51.498;11.960;2023-12-04T04:57:14;-0.50;99.90
29729;DHT22;20055;51.498;11.960;2023-12-04T04:59:40;-0.40;99.90
29729;DHT22;20055;51.498;11.960;2023-12-04T05:02:07;-0.20;99.90
29729;DHT22;20055;51.498;11.960;2023-12-04T05:04:33;-0.20;99.90
29729;DHT22;20055;51.498;11.960;2023-12-04T05:06:59;-0.10;99.90
29729;DHT22;20055;51.498;11.960;2023-12-04T05:09:26;-0.20;99.90
29729;DHT22;20055;51.498;11.960;2023-12-04T05:11:52;-0.50;99.90
29729;DHT22;20055;51.498;11.960;2023-12-04T05:14:19;-0.50;99.90
29729;DHT22;20055;51.498;11.960;2023-12-04T05:16:45;-0.50;99.90
29729;DHT22;20055;51.498;11.960;2023-12-04T05:19:11;-0.40;99.90
29729;DHT22;20055;51.498;11.960;2023-12-04T05:21:38;-0.30;99.90
29729;DHT22;20055;51.498;11.960;2023-12-04T05:24:05;-0.50;99.90
29729;DHT22;20055;51.498;11.960;2023-12-04T05:26:31;-0.50;99.90
29729;DHT22;20055;51.498;11.960;2023-12-04T05:28:58;-0.70;99.90
29729;DHT22;20055;51.498;11.960;2023-12-04T05:31:24;-0.70;99.90
29729;DHT22;20055;51.498;11.960;2023-12-04T05:33:50;-0.70;99.90
29729;DHT22;20055;51.498;11.960;2023-12-04T05:36:17;-0.80;99.90
29729;DHT22;20055;51.498;11.960;2023-12-04T05:38:43;-0.60;99.90
29729;DHT22;20055;51.498;11.960;2023-12-04T05:41:10;-0.70;99.90
29729;DHT22;20055;51.498;11.960;2023-12-04T05:43:36;-0.60;99.90
29729;DHT22;20055;51.498;11.960;2023-12-04T05:46:02;-0.70;99.90
29729;DHT22;20055;51.498;11.960;2023-12-04T05:48:29;-0.70;99.90
29729;DHT22;20055;51.498;11.960;2023-12-04T05:50:55;-0.60;99.90
29729;DHT22;20055;51.498;11.960;2023-12-04T05:53:21;-0.80;99.90
29729;DHT22;20055;51.498;11.960;2023-12-04T05:55:48;-1.00;99.90
29729;DHT22;20055;51.498;11.960;2023-12-04T05:58:14;-1.10;99.90
29729;DHT22;20055;51.498;11.960;2023-12-04T06:00:41;-1.20;99.90
29729;DHT22;20055;51.498;11.960;2023-12-04T06:03:07;-1.30;99.90
29729;DHT22;20055;51.498;11.960;2023-12-04T06:05:33;-1.30;99.90
29729;DHT22;20055;51.498;11.960;2023-12-04T06:08:00;-1.30;99.90
29729;DHT22;20055;51.498;11.960;2023-12-04T06:10:26;-1.50;99.90
29729;DHT22;20055;51.498;11.960;2023-12-04T06:12:52;-1.50;99.90
29729;DHT22;20055;51.498;11.960;2023-12-04T06:15:19;-1.40;99.90
29729;DHT22;20055;51.498;11.960;2023-12-04T06:17:46;-1.40;99.90
29729;DHT22;20055;51.498;11.960;2023-12-04T06:20:12;-1.30;99.90
29729;DHT22;20055;51.498;11.960;2023-12-04T06:22:39;-1.30;99.90
29729;DHT22;20055;51.498;11.960;2023-12-04T06:25:06;-1.20;99.90
29729;DHT22;20055;51.498;11.960;2023-12-04T06:27:32;-1.10;99.90
29729;DHT22;20055;51.498;11.960;2023-12-04T06:29:59;-1.10;99.90
29729;DHT22;20055;51.498;11.960;2023-12-04T06:32:26;-1.10;99.90
29729;DHT22;20055;51.498;11.960;2023-12-04T06:34:53;-1.20;99.90
29729;DHT22;20055;51.498;11.960;2023-12-04T06:37:21;-1.30;99.90
29729;DHT22;20055;51.498;11.960;2023-12-04T06:39:48;-1.30;99.90
29729;DHT22;20055;51.498;11.960;2023-12-04T06:42:16;-1.40;99.90
29729;DHT22;20055;51.498;11.960;2023-12-04T06:44:43;-1.30;99.90
29729;DHT22;20055;51.498;11.960;2023-12-04T06:47:09;-1.20;99.90
29729;DHT22;20055;51.498;11.960;2023-12-04T06:49:38;-1.20;99.90
29729;DHT22;20055;51.498;11.960;2023-12-04T06:52:05;-1.30;99.90
29729;DHT22;20055;51.498;11.960;2023-12-04T06:54:31;-1.40;99.90
29729;DHT22;20055;51.498;11.960;2023-12-04T06:56:58;-1.40;99.90
29729;DHT22;20055;51.498;11.960;2023-12-04T06:59:24;-1.40;99.90
29729;DHT22;20055;51.498;11.960;2023-12-04T07:01:50;-1.30;99.90
29729;DHT22;20055;51.498;11.960;2023-12-04T07:04:18;-1.30;99.90
29729;DHT22;20055;51.498;11.960;2023-12-04T07:06:47;-1.40;99.90
29729;DHT22;20055;51.498;11.960;2023-12-04T07:09:17;-1.40;99.90
29729;DHT22;20055;51.498;11.960;2023-12-04T07:11:43;-1.30;99.90
29729;DHT22;20055;51.498;11.960;2023-12-04T07:14:10;-1.30;99.90
29729;DHT22;20055;51.498;11.960;2023-12-04T07:16:43;-1.40;99.90
29729;DHT22;20055;51.498;11.960;2023-12-04T07:19:10;-1.40;99.90
29729;DHT22;20055;51.498;11.960;2023-12-04T07:21:37;-1.40;99.90
29729;DHT22;20055;51.498;11.960;2023-12-04T07:24:04;-1.40;99.90
29729;DHT22;20055;51.498;11.960;2023-12-04T07:26:31;-1.40;99.90
29729;DHT22;20055;51.498;11.960;2023-12-04T07:28:58;-1.40;99.90
29729;DHT22;20055;51.498;11.960;2023-12-04T07:31:24;-1.40;99.90
29729;DHT22;20055;51.498;11.960;2023-12-04T07:33:55;-1.40;99.90
29729;DHT22;20055;51.498;11.960;2023-12-04T07:36:22;-1.40;99.90
29729;DHT22;20055;51.498;11.960;2023-12-04T07:38:50;-1.40;99.90
29729;DHT22;20055;51.498;11.960;2023-12-04T07:41:17;-1.30;99.90
29729;DHT22;20055;51.498;11.960;2023-12-04T07:43:44;-1.30;99.90
29729;DHT22;20055;51.498;11.960;2023-12-04T07:46:10;-1.20;99.90
29729;DHT22;20055;51.498;11.960;2023-12-04T07:48:37;-1.30;99.90
29729;DHT22;20055;51.498;11.960;2023-12-04T07:51:04;-1.20;99.90
29729;DHT22;20055;51.498;11.960;2023-12-04T07:53:30;-1.10;99.90
29729;DHT22;20055;51.498;11.960;2023-12-04T07:56:01;-1.00;99.90
29729;DHT22;20055;51.498;11.960;2023-12-04T07:58:30;-1.00;99.90
29729;DHT22;20055;51.498;11.960;2023-12-04T08:00:58;-0.90;99.90
29729;DHT22;20055;51.498;11.960;2023-12-04T08:03:24;-1.00;99.90
29729;DHT22;20055;51.498;11.960;2023-12-04T08:05:51;-0.90;99.90
29729;DHT22;20055;51.498;11.960;2023-12-04T08:08:17;-0.90;99.90
29729;DHT22;20055;51.498;11.960;2023-12-04T08:10:44;-0.70;99.90
29729;DHT22;20055;51.498;11.960;2023-12-04T08:13:10;-0.70;99.90
29729;DHT22;20055;51.498;11.960;2023-12-04T08:15:36;-0.50;99.90
29729;DHT22;20055;51.498;11.960;2023-12-04T08:18:03;-0.30;99.90
29729;DHT22;20055;51.498;11.960;2023-12-04T08:20:29;-0.10;99.90
29729;DHT22;20055;51.498;11.960;2023-12-04T08:22:55;0.10;99.90
29729;DHT22;20055;51.498;11.960;2023-12-04T08:25:22;0.00;99.90
29729;DHT22;20055;51.498;11.960;2023-12-04T08:27:48;0.00;99.90
29729;DHT22;20055;51.498;11.960;2023-12-04T08:30:15;0.30;99.90
29729;DHT22;20055;51.498;11.960;2023-12-04T08:32:42;0.40;99.90
29729;DHT22;20055;51.498;11.960;2023-12-04T08:35:09;0.10;99.90
29729;DHT22;20055;51.498;11.960;2023-12-04T08:37:35;0.00;99.90
29729;DHT22;20055;51.498;11.960;2023-12-04T08:40:02;0.10;99.90
29729;DHT22;20055;51.498;11.960;2023-12-04T08:42:29;0.30;99.90
29729;DHT22;20055;51.498;11.960;2023-12-04T08:44:56;0.00;99.90
29729;DHT22;20055;51.498;11.960;2023-12-04T08:47:23;0.00;99.90
29729;DHT22;20055;51.498;11.960;2023-12-04T08:49:49;-0.20;99.90
29729;DHT22;20055;51.498;11.960;2023-12-04T08:52:15;-0.30;99.90
29729;DHT22;20055;51.498;11.960;2023-12-04T08:54:42;-0.30;99.90
29729;DHT22;20055;51.498;11.960;2023-12-04T08:57:08;-0.10;99.90
29729;DHT22;20055;51.498;11.960;2023-12-04T08:59:35;0.10;99.90
29729;DHT22;20055;51.498;11.960;2023-12-04T09:02:02;0.00;99.90
29729;DHT22;20055;51.498;11.960;2023-12-04T09:04:32;0.00;99.90
29729;DHT22;20055;51.498;11.960;2023-12-04T09:06:59;0.10;99.90
29729;DHT22;20055;51.498;11.960;2023-12-04T09:09:25;0.20;99.90
29729;DHT22;20055;51.498;11.960;2023-12-04T09:11:52;0.30;99.90
29729;DHT22;20055;51.498;11.960;2023-12-04T09:14:19;0.50;99.90
29729;DHT22;20055;51.498;11.960;2023-12-04T09:16:45;0.60;99.90
29729;DHT22;20055;51.498;11.960;2023-12-04T09:19:11;0.40;99.90
29729;DHT22;20055;51.498;11.960;2023-12-04T09:21:38;0.30;99.90
29729;DHT22;20055;51.498;11.960;2023-12-04T09:24:05;0.20;99.90
29729;DHT22;20055;51.498;11.960;2023-12-04T09:26:31;0.30;99.90
29729;DHT22;20055;51.498;11.960;2023-12-04T09:28:58;0.30;99.90
29729;DHT22;20055;51.498;11.960;2023-12-04T09:31:24;0.20;99.90
29729;DHT22;20055;51.498;11.960;2023-12-04T09:33:51;0.10;99.90
29729;DHT22;20055;51.498;11.960;2023-12-04T09:36:17;0.10;99.90
29729;DHT22;20055;51.498;11.960;2023-12-04T09:38:43;0.20;99.90
29729;DHT22;20055;51.498;11.960;2023-12-04T09:41:12;0.20;99.90
29729;DHT22;20055;51.498;11.960;2023-12-04T09:43:39;0.50;99.90
29729;DHT22;20055;51.498;11.960;2023-12-04T09:46:08;0.60;99.90
29729;DHT22;20055;51.498;11.960;2023-12-04T09:48:36;0.80;99.90
29729;DHT22;20055;51.498;11.960;2023-12-04T09:51:03;0.70;99.90
29729;DHT22;20055;51.498;11.960;2023-12-04T09:53:30;0.70;99.90
29729;DHT22;20055;51.498;11.960;2023-12-04T09:55:59;0.60;99.90
29729;DHT22;20055;51.498;11.960;2023-12-04T09:58:30;1.00;99.90
29729;DHT22;20055;51.498;11.960;2023-12-04T10:01:00;1.20;99.90
29729;DHT22;20055;51.498;11.960;2023-12-04T10:03:27;0.90;99.90
29729;DHT22;20055;51.498;11.960;2023-12-04T10:05:56;0.90;99.90
29729;DHT22;20055;51.498;11.960;2023-12-04T10:08:22;0.90;99.90
29729;DHT22;20055;51.498;11.960;2023-12-04T10:10:51;0.90;99.90
29729;DHT22;20055;51.498;11.960;2023-12-04T10:13:18;0.80;99.90
29729;DHT22;20055;51.498;11.960;2023-12-04T10:15:49;0.80;99.90
29729;DHT22;20055;51.498;11.960;2023-12-04T10:18:26;0.70;99.90
29729;DHT22;20055;51.498;11.960;2023-12-04T10:20:53;0.70;99.90
29729;DHT22;20055;51.498;11.960;2023-12-04T10:23:20;0.80;99.90
29729;DHT22;20055;51.498;11.960;2023-12-04T10:25:49;0.90;99.90
29729;DHT22;20055;51.498;11.960;2023-12-04T10:28:17;0.80;99.90
29729;DHT22;20055;51.498;11.960;2023-12-04T10:30:45;0.90;99.90
29729;DHT22;20055;51.498;11.960;2023-12-04T10:33:12;1.00;99.90
29729;DHT22;20055;51.498;11.960;2023-12-04T10:35:40;1.40;99.90
29729;DHT22;20055;51.498;11.960;2023-12-04T10:38:07;1.60;99.90
29729;DHT22;20055;51.498;11.960;2023-12-04T10:40:35;2.10;99.90
29729;DHT22;20055;51.498;11.960;2023-12-04T10:43:18;2.40;99.90
29729;DHT22;20055;51.498;11.960;2023-12-04T10:45:47;2.30;99.90
29729;DHT22;20055;51.498;11.960;2023-12-04T10:48:16;2.40;99.90
29729;DHT22;20055;51.498;11.960;2023-12-04T10:50:45;2.30;99.90
29729;DHT22;20055;51.498;11.960;2023-12-04T10:53:12;2.10;99.90
29729;DHT22;20055;51.498;11.960;2023-12-04T10:55:40;1.90;99.90
29729;DHT22;20055;51.498;11.960;2023-12-04T10:58:10;2.00;99.90
29729;DHT22;20055;51.498;11.960;2023-12-04T11:00:40;1.70;99.90
29729;DHT22;20055;51.498;11.960;2023-12-04T11:03:13;1.40;99.90
29729;DHT22;20055;51.498;11.960;2023-12-04T11:05:41;1.40;99.90
29729;DHT22;20055;51.498;11.960;2023-12-04T11:08:09;1.40;99.90
29729;DHT22;20055;51.498;11.960;2023-12-04T11:11:02;1.40;99.90
29729;DHT22;20055;51.498;11.960;2023-12-04T11:13:34;1.30;99.90
29729;DHT22;20055;51.498;11.960;2023-12-04T11:16:06;1.40;99.90
29729;DHT22;20055;51.498;11.960;2023-12-04T11:18:36;1.50;99.90
29729;DHT22;20055;51.498;11.960;2023-12-04T11:21:10;1.40;99.90
29729;DHT22;20055;51.498;11.960;2023-12-04T11:23:38;1.30;99.90
29729;DHT22;20055;51.498;11.960;2023-12-04T11:26:06;1.40;99.90
29729;DHT22;20055;51.498;11.960;2023-12-04T11:28:34;1.30;99.90
29729;DHT22;20055;51.498;11.960;2023-12-04T11:31:01;1.30;99.90
29729;DHT22;20055;51.498;11.960;2023-12-04T11:33:27;1.30;99.90
29729;DHT22;20055;51.498;11.960;2023-12-04T11:36:06;1.40;99.90
29729;DHT22;20055;51.498;11.960;2023-12-04T11:38:33;1.40;99.90
29729;DHT22;20055;51.498;11.960;2023-12-04T11:40:59;1.40;99.90
29729;DHT22;20055;51.498;11.960;2023-12-04T11:43:27;1.30;99.90
29729;DHT22;20055;51.498;11.960;2023-12-04T11:46:10;1.30;99.90
29729;DHT22;20055;51.498;11.960;2023-12-04T11:48:38;1.30;99.90
29729;DHT22;20055;51.498;11.960;2023-12-04T11:51:07;1.20;99.90
29729;DHT22;20055;51.498;11.960;2023-12-04T11:53:40;1.10;99.90
29729;DHT22;20055;51.498;11.960;2023-12-04T11:56:13;0.90;99.90
29729;DHT22;20055;51.498;11.960;2023-12-04T11:58:43;0.80;99.90
29729;DHT22;20055;51.498;11.960;2023-12-04T12:01:10;0.70;99.90
29729;DHT22;20055;51.498;11.960;2023-12-04T12:03:36;0.70;99.90
29729;DHT22;20055;51.498;11.960;2023-12-04T12:06:04;0.60;99.90
29729;DHT22;20055;51.498;11.960;2023-12-04T12:08:30;0.70;99.90
29729;DHT22;20055;51.498;11.960;2023-12-04T12:10:57;0.60;99.90
29729;DHT22;20055;51.498;11.960;2023-12-04T12:13:24;0.60;99.90
29729;DHT22;20055;51.498;11.960;2023-12-04T12:15:52;0.60;99.90
29729;DHT22;20055;51.498;11.960;2023-12-04T12:18:19;0.70;99.90
29729;DHT22;20055;51.498;11.960;2023-12-04T12:20:47;0.70;99.90
29729;DHT22;20055;51.498;11.960;2023-12-04T12:23:13;0.80;99.90
29729;DHT22;20055;51.498;11.960;2023-12-04T12:25:40;0.80;99.90
29729;DHT22;20055;51.498;11.960;2023-12-04T12:28:06;0.80;99.90
29729;DHT22;20055;51.498;11.960;2023-12-04T12:30:32;0.70;99.90
29729;DHT22;20055;51.498;11.960;2023-12-04T12:32:59;0.70;99.90
29729;DHT22;20055;51.498;11.960;2023-12-04T12:35:25;0.70;99.90
29729;DHT22;20055;51.498;11.960;2023-12-04T12:37:52;0.60;99.90
29729;DHT22;20055;51.498;11.960;2023-12-04T12:40:21;0.60;99.90
29729;DHT22;20055;51.498;11.960;2023-12-04T12:42:48;0.60;99.90
29729;DHT22;20055;51.498;11.960;2023-12-04T12:45:15;0.50;99.90
29729;DHT22;20055;51.498;11.960;2023-12-04T12:47:43;0.50;99.90
29729;DHT22;20055;51.498;11.960;2023-12-04T12:50:09;0.50;99.90
29729;DHT22;20055;51.498;11.960;2023-12-04T12:52:39;0.50;99.90
29729;DHT22;20055;51.498;11.960;2023-12-04T12:55:07;0.40;99.90
29729;DHT22;20055;51.498;11.960;2023-12-04T12:57:33;0.40;99.90
29729;DHT22;20055;51.498;11.960;2023-12-04T13:00:00;0.50;99.90
29729;DHT22;20055;51.498;11.960;2023-12-04T13:02:26;0.50;99.90
29729;DHT22;20055;51.498;11.960;2023-12-04T13:04:52;0.60;99.90
29729;DHT22;20055;51.498;11.960;2023-12-04T13:07:19;0.60;99.90
29729;DHT22;20055;51.498;11.960;2023-12-04T13:09:47;0.60;99.90
29729;DHT22;20055;51.498;11.960;2023-12-04T13:12:14;0.60;99.90
29729;DHT22;20055;51.498;11.960;2023-12-04T13:14:40;0.60;99.90
29729;DHT22;20055;51.498;11.960;2023-12-04T13:17:07;0.70;99.90
29729;DHT22;20055;51.498;11.960;2023-12-04T13:19:34;0.60;99.90
29729;DHT22;20055;51.498;11.960;2023-12-04T13:22:02;0.60;99.90
29729;DHT22;20055;51.498;11.960;2023-12-04T13:24:30;0.50;99.90
29729;DHT22;20055;51.498;11.960;2023-12-04T13:26:56;0.60;99.90
29729;DHT22;20055;51.498;11.960;2023-12-04T13:29:23;0.60;99.90
29729;DHT22;20055;51.498;11.960;2023-12-04T13:31:50;0.50;99.90
29729;DHT22;20055;51.498;11.960;2023-12-04T13:34:16;0.50;99.90
29729;DHT22;20055;51.498;11.960;2023-12-04T13:36:43;0.50;99.90
29729;DHT22;20055;51.498;11.960;2023-12-04T13:39:10;0.60;99.90
29729;DHT22;20055;51.498;11.960;2023-12-04T13:41:46;0.50;99.90
29729;DHT22;20055;51.498;11.960;2023-12-04T13:44:31;0.40;99.90
29729;DHT22;20055;51.498;11.960;2023-12-04T13:46:59;0.30;99.90
29729;DHT22;20055;51.498;11.960;2023-12-04T13:49:25;0.30;99.90
29729;DHT22;20055;51.498;11.960;2023-12-04T13:51:52;0.30;99.90
29729;DHT22;20055;51.498;11.960;2023-12-04T13:54:20;0.30;99.90
29729;DHT22;20055;51.498;11.960;2023-12-04T13:56:48;0.30;99.90
29729;DHT22;20055;51.498;11.960;2023-12-04T13:59:21;0.20;99.90
29729;DHT22;20055;51.498;11.960;2023-12-04T14:01:48;0.20;99.90
29729;DHT22;20055;51.498;11.960;2023-12-04T14:04:20;0.20;99.90
29729;DHT22;20055;51.498;11.960;2023-12-04T14:06:46;0.20;99.90
29729;DHT22;20055;51.498;11.960;2023-12-04T14:09:13;0.10;99.90
29729;DHT22;20055;51.498;11.960;2023-12-04T14:11:43;0.20;99.90
29729;DHT22;20055;51.498;11.960;2023-12-04T14:14:12;0.20;99.90
29729;DHT22;20055;51.498;11.960;2023-12-04T14:16:40;0.20;99.90
29729;DHT22;20055;51.498;11.960;2023-12-04T14:19:08;0.20;99.90
29729;DHT22;20055;51.498;11.960;2023-12-04T14:21:34;0.20;99.90
29729;DHT22;20055;51.498;11.960;2023-12-04T14:24:01;0.30;99.90
29729;DHT22;20055;51.498;11.960;2023-12-04T14:26:27;0.30;99.90
29729;DHT22;20055;51.498;11.960;2023-12-04T14:28:54;0.30;99.90
29729;DHT22;20055;51.498;11.960;2023-12-04T14:31:20;0.30;99.90
29729;DHT22;20055;51.498;11.960;2023-12-04T14:33:47;0.40;99.90
29729;DHT22;20055;51.498;11.960;2023-12-04T14:36:14;0.40;99.90
29729;DHT22;20055;51.498;11.960;2023-12-04T14:38:40;0.40;99.90
29729;DHT22;20055;51.498;11.960;2023-12-04T14:41:07;0.50;99.90
29729;DHT22;20055;51.498;11.960;2023-12-04T14:43:36;0.60;99.90
29729;DHT22;20055;51.498;11.960;2023-12-04T14:46:04;0.60;99.90
29729;DHT22;20055;51.498;11.960;2023-12-04T14:48:30;0.70;99.90
29729;DHT22;20055;51.498;11.960;2023-12-04T14:50:57;0.80;99.90
29729;DHT22;20055;51.498;11.960;2023-12-04T14:53:23;0.70;99.90
29729;DHT22;20055;51.498;11.960;2023-12-04T14:56:01;0.80;99.90
29729;DHT22;20055;51.498;11.960;2023-12-04T14:58:39;0.90;99.90
29729;DHT22;20055;51.498;11.960;2023-12-04T15:01:12;0.90;99.90
29729;DHT22;20055;51.498;11.960;2023-12-04T15:03:38;0.80;99.90
29729;DHT22;20055;51.498;11.960;2023-12-04T15:06:23;0.80;99.90
29729;DHT22;20055;51.498;11.960;2023-12-04T15:09:06;0.80;99.90
29729;DHT22;20055;51.498;11.960;2023-12-04T15:11:51;0.70;99.90
29729;DHT22;20055;51.498;11.960;2023-12-04T15:14:17;0.60;99.90
29729;DHT22;20055;51.498;11.960;2023-12-04T15:17:02;0.60;99.90
29729;DHT22;20055;51.498;11.960;2023-12-04T15:19:56;0.50;99.90
29729;DHT22;20055;51.498;11.960;2023-12-04T15:22:25;0.50;99.90
29729;DHT22;20055;51.498;11.960;2023-12-04T15:24:51;0.40;99.90